»·PEaware :: N6515D KSLC-KENV

N6515D :: KSLC-KENV

FLIGHT INFORMATION

Flight Status: Arrived
Operator: Privately registered:
United States
More flights under this callsign
Pilot: Charles S. (11412)
Aircraft: Unknown
(DA62)
More flights by this aircraft type
Origin: KSLC Salt Lake City Intl
United States
Destination: KENV Wendover
United States
More flights between these airports :: More routes between these airports
Route: STACO V32 BVL
File this flight plan on PilotEdge
Remarks:
Altitude:
(Current/Filed)
10,000ft
Speed:
(Current/Filed)
270kts
Departed: 08-Oct-18 03:19 PM
Arrived: 08-Oct-18 03:55 PM
Distance/Time
Traveled:
94nm/0:36
Distance/Time
To Go:
Arrived

Flight Plot

Page will automatically refresh every two minutes.

Flight plan parsing failed; only flown route is shown


Map Options




Map Legend


Flown Route
Filed Route
Departure Airport
Arrival Airport
Navaid (VOR, NDB)
Fix

Horizontal Profiles

Position Reports

Time Latitude Longitude Heading Altitude Ground
Speed
08-Oct-18 14:52 40.775678 -111.959393 357 4223ft 0kts
08-Oct-18 14:53 40.775679 -111.959393 357 4223ft 0kts
08-Oct-18 14:54 40.775680 -111.959393 357 4223ft 0kts
08-Oct-18 14:55 40.775681 -111.959393 357 4223ft 0kts
08-Oct-18 14:56 40.775682 -111.959393 357 4223ft 0kts
08-Oct-18 14:57 40.775683 -111.959393 357 4223ft 0kts
08-Oct-18 14:58 40.775684 -111.959393 357 4223ft 0kts
08-Oct-18 14:59 40.775685 -111.959393 357 4223ft 0kts
08-Oct-18 15:00 40.775715 -111.959389 357 4223ft 0kts
08-Oct-18 15:01 40.775715 -111.959389 357 4223ft 0kts
08-Oct-18 15:02 40.775716 -111.959389 357 4223ft 0kts
08-Oct-18 15:03 40.775737 -111.959389 358 4223ft 0kts
08-Oct-18 15:04 40.775744 -111.959389 1 4223ft 1kts
08-Oct-18 15:05 40.775744 -111.959389 1 4223ft 1kts
08-Oct-18 15:06 40.775744 -111.959389 1 4223ft 1kts
08-Oct-18 15:07 40.775758 -111.959388 3 4223ft 0kts
08-Oct-18 15:08 40.775758 -111.959388 3 4223ft 0kts
08-Oct-18 15:09 40.775758 -111.959388 3 4223ft 0kts
08-Oct-18 15:10 40.775871 -111.959488 285 4223ft 4kts
08-Oct-18 15:11 40.775873 -111.959508 275 4223ft 0kts
08-Oct-18 15:12 40.775873 -111.959508 275 4223ft 0kts
08-Oct-18 15:13 40.775873 -111.959508 275 4223ft 0kts
08-Oct-18 15:14 40.775873 -111.959508 275 4223ft 0kts
08-Oct-18 15:15 40.775873 -111.959508 275 4223ft 0kts
08-Oct-18 15:16 40.775873 -111.959508 275 4223ft 0kts
08-Oct-18 15:17 40.775873 -111.959508 275 4223ft 0kts
08-Oct-18 15:18 40.775873 -111.959508 275 4223ft 0kts
08-Oct-18 15:19 40.773400 -111.960568 177 4223ft 25kts
08-Oct-18 15:20 40.773020 -111.962030 346 4223ft 20kts
08-Oct-18 15:21 40.797098 -111.962390 3 4647ft 119kts
08-Oct-18 15:22 40.820854 -111.986265 271 5461ft 132kts
08-Oct-18 15:23 40.823837 -112.035932 270 6273ft 138kts
08-Oct-18 15:24 40.826824 -112.086774 271 7080ft 140kts
08-Oct-18 15:25 40.829513 -112.135491 265 7845ft 139kts
08-Oct-18 15:26 40.828060 -112.185894 265 8637ft 139kts
08-Oct-18 15:27 40.826750 -112.237078 265 9440ft 139kts
08-Oct-18 15:28 40.825472 -112.288027 265 10192ft 143kts
08-Oct-18 15:29 40.823995 -112.346537 265 10223ft 170kts
08-Oct-18 15:30 40.822381 -112.410032 266 10220ft 176kts
08-Oct-18 15:31 40.818479 -112.474501 262 10219ft 177kts
08-Oct-18 15:32 40.814142 -112.539006 262 10219ft 177kts
08-Oct-18 15:33 40.809768 -112.603504 262 10219ft 177kts
08-Oct-18 15:34 40.805406 -112.667084 262 10193ft 178kts
08-Oct-18 15:35 40.801234 -112.732014 262 10192ft 178kts
08-Oct-18 15:36 40.796584 -112.796945 262 10192ft 178kts
08-Oct-18 15:37 40.792092 -112.860945 262 10192ft 178kts
08-Oct-18 15:38 40.787532 -112.925889 262 10192ft 178kts
08-Oct-18 15:39 40.782932 -112.990905 262 10192ft 178kts
08-Oct-18 15:40 40.778315 -113.055646 262 10192ft 178kts
08-Oct-18 15:41 40.773616 -113.120784 262 10057ft 181kts
08-Oct-18 15:42 40.768875 -113.186463 262 9759ft 180kts
08-Oct-18 15:43 40.763984 -113.252259 262 9459ft 180kts
08-Oct-18 15:44 40.759123 -113.317775 262 9197ft 178kts
08-Oct-18 15:45 40.754356 -113.382190 262 9192ft 177kts
08-Oct-18 15:46 40.749652 -113.446967 262 9192ft 177kts
08-Oct-18 15:47 40.744857 -113.511172 262 9192ft 177kts
08-Oct-18 15:48 40.740089 -113.574654 262 9191ft 177kts
08-Oct-18 15:49 40.735935 -113.638445 262 8506ft 171kts
08-Oct-18 15:50 40.731912 -113.699808 262 7716ft 169kts
08-Oct-18 15:51 40.727838 -113.761416 262 6919ft 168kts
08-Oct-18 15:52 40.723751 -113.822728 262 6138ft 167kts
08-Oct-18 15:53 40.719913 -113.879942 261 6054ft 143kts
08-Oct-18 15:54 40.718920 -113.918977 266 5532ft 128kts
08-Oct-18 15:55 40.718953 -113.965512 265 4886ft 91kts
08-Oct-18 15:56 40.718952 -113.992923 265 4486ft 90kts
08-Oct-18 15:57 40.718956 -114.025514 267 4223ft 40kts
08-Oct-18 15:58 40.721370 -114.034691 315 4226ft 25kts
08-Oct-18 15:59 40.726063 -114.040623 0 4234ft 18kts
08-Oct-18 16:00 40.727292 -114.039393 268 4234ft 0kts
08-Oct-18 16:01 40.727292 -114.039393 268 4234ft 0kts

Navigation Log

Ident Type
Flight plan parsing failed, navigation log unavailable